Tar Heel, North Carolina
Current Conditions -  °F | °C
As of 6:55 PM on Monday 22 Dec 2014 (Local Time) from KEYF Reporting Station
Haze Haze  
Wind Chill: 42°   Ceiling: 300
Heat Index: 42°   Visibility: 2mi
Dew Point: 42°   Wind: 3mph
Humidity: 100%   Direction: 360°N
Pressure: 30.04"   Gusts: NA
Location:  34.73°N, 78.79°W
Report Text: KEYF 222355Z AUTO 36003KT 2SM BR OVC003 06/06 A3004 RMK AO2 T00560056 10066 20056
Loading
Personal Weather Stations






























Interactive Weather Map New forecast layout! Learn more

10-Day Weather Forecast

Advertisements
Track Severe Weather on mobile